Time;durP1;ratioP1;P1;durP2;ratioP2;P2;SDS_P1;SDS_P2;PMS_P1;PMS_P2;Temp;Humidity;BMP_temperature;BMP_pressure;BME280_temperature;BME280_humidity;BME280_pressure;Samples;Min_cycle;Max_cycle;Signal;HPM_P1;HPM_P2
2023/06/21 00:02:19;;;;;;;76.28;53.97;;;21.40;78.70;;;;;;4949664;28;99166;-79
2023/06/21 00:04:45;;;;;;;76.22;54.40;;;21.40;79.10;;;;;;4952171;28;95499;-82
2023/06/21 00:07:11;;;;;;;76.35;53.97;;;21.40;78.80;;;;;;4960934;28;95533;-79
2023/06/21 00:09:36;;;;;;;76.18;54.15;;;21.40;78.80;;;;;;4963338;28;99438;-80
2023/06/21 00:12:02;;;;;;;75.68;53.88;;;21.40;78.70;;;;;;4977627;28;98735;-81
2023/06/21 00:14:28;;;;;;;76.47;54.10;;;21.40;80.00;;;;;;4956872;28;96500;-79
2023/06/21 00:16:53;;;;;;;76.00;54.03;;;21.40;78.90;;;;;;4950259;28;95692;-80
2023/06/21 00:19:19;;;;;;;75.18;53.65;;;21.30;79.60;;;;;;4963621;28;97686;-80
2023/06/21 00:21:45;;;;;;;77.75;53.90;;;21.40;79.60;;;;;;4949331;28;94737;-79
2023/06/21 00:24:11;;;;;;;76.90;54.05;;;21.40;79.20;;;;;;4951311;28;94850;-80
2023/06/21 00:26:36;;;;;;;76.47;53.85;;;21.30;79.30;;;;;;4955945;28;94010;-79
2023/06/21 00:29:02;;;;;;;75.30;53.88;;;21.30;79.00;;;;;;4954754;28;97927;-79
2023/06/21 00:31:28;;;;;;;76.00;53.95;;;21.40;80.30;;;;;;4958287;28;95104;-80
2023/06/21 00:33:54;;;;;;;75.78;54.10;;;21.30;79.20;;;;;;4965539;28;95491;-79
2023/06/21 00:36:19;;;;;;;75.35;53.72;;;21.40;79.80;;;;;;4966567;28;94928;-81
2023/06/21 00:38:46;;;;;;;77.18;54.03;;;21.40;79.00;;;;;;4965466;28;95366;-79
2023/06/21 00:41:12;;;;;;;75.93;53.85;;;21.30;77.80;;;;;;4961321;28;98194;-80
2023/06/21 00:43:37;;;;;;;77.15;53.95;;;21.30;77.90;;;;;;4954511;28;95131;-80
2023/06/21 00:46:04;;;;;;;76.80;54.13;;;21.30;79.70;;;;;;4963680;28;95056;-79
2023/06/21 00:48:29;;;;;;;78.78;54.67;;;21.30;80.80;;;;;;4964728;28;94944;-80
2023/06/21 00:50:56;;;;;;;78.07;54.65;;;21.30;78.50;;;;;;4966499;28;96103;-80
2023/06/21 00:53:24;;;;;;;78.43;54.03;;;21.30;78.70;;;;;;4964084;28;94717;-79
2023/06/21 00:55:50;;;;;;;78.85;54.15;;;21.30;79.10;;;;;;4960237;28;94495;-79
2023/06/21 00:58:20;;;;;;;77.35;54.05;;;21.20;79.40;;;;;;4950955;28;96822;-80
2023/06/21 01:00:48;;;;;;;76.00;54.08;;;21.20;79.20;;;;;;4960990;28;99190;-81
2023/06/21 01:03:13;;;;;;;75.80;53.97;;;21.20;79.40;;;;;;4965844;28;94787;-79
2023/06/21 01:05:39;;;;;;;75.50;53.67;;;21.20;79.00;;;;;;4968326;28;95839;-80
2023/06/21 01:08:30;;;;;;;77.25;53.85;;;21.20;80.90;;;;;;4963751;28;96857;-79
2023/06/21 01:11:27;;;;;;;78.25;54.15;;;21.20;79.50;;;;;;4961107;28;98149;-80
2023/06/21 01:14:00;;;;;;;75.15;53.45;;;21.20;80.90;;;;;;4959833;28;94893;-79
2023/06/21 01:16:39;;;;;;;75.40;53.60;;;21.20;79.70;;;;;;4964016;28;94840;-80
2023/06/21 01:19:07;;;;;;;75.03;53.40;;;21.20;79.30;;;;;;4966015;28;95248;-79
2023/06/21 01:21:34;;;;;;;74.95;53.50;;;21.20;79.30;;;;;;4963134;28;98042;-82
2023/06/21 01:24:07;;;;;;;76.05;53.58;;;21.20;80.10;;;;;;4965348;28;95334;-80
2023/06/21 01:26:54;;;;;;;74.90;53.53;;;21.20;79.40;;;;;;4969981;28;94427;-80
2023/06/21 01:29:26;;;;;;;75.10;53.47;;;21.20;79.60;;;;;;4961543;28;98471;-80
2023/06/21 01:31:54;;;;;;;75.72;53.63;;;21.20;79.40;;;;;;4962979;28;97576;-80
2023/06/21 01:34:20;;;;;;;75.95;53.72;;;21.10;79.60;;;;;;4966992;28;94626;-81
2023/06/21 01:36:46;;;;;;;75.97;53.83;;;21.20;80.60;;;;;;4968216;28;94545;-80
2023/06/21 01:39:11;;;;;;;75.53;53.53;;;21.10;79.60;;;;;;4969603;28;98120;-80
2023/06/21 01:41:38;;;;;;;74.82;53.20;;;21.10;80.00;;;;;;4963320;28;98881;-80
2023/06/21 01:44:05;;;;;;;75.25;53.67;;;21.10;79.70;;;;;;4966230;28;94717;-80
2023/06/21 01:46:31;;;;;;;74.88;53.00;;;21.10;80.10;;;;;;4957297;28;94681;-81
2023/06/21 01:49:00;;;;;;;75.85;53.50;;;21.00;79.80;;;;;;4968776;28;99100;-80
2023/06/21 01:51:26;;;;;;;75.90;53.47;;;21.00;79.60;;;;;;4954764;28;96073;-80
2023/06/21 01:53:52;;;;;;;75.43;53.55;;;21.00;81.10;;;;;;4956185;28;94776;-80
2023/06/21 01:56:18;;;;;;;76.63;53.88;;;21.00;80.10;;;;;;4949119;28;96776;-82
2023/06/21 01:58:48;;;;;;;75.43;53.75;;;21.00;81.10;;;;;;4956176;28;98286;-80
2023/06/21 02:01:15;;;;;;;75.45;53.58;;;21.00;80.90;;;;;;4951446;28;97725;-80
2023/06/21 02:03:44;;;;;;;75.78;53.53;;;21.00;79.70;;;;;;4953132;28;95339;-79
2023/06/21 02:06:11;;;;;;;75.53;53.42;;;20.90;81.00;;;;;;4948265;28;94979;-80
2023/06/21 02:08:38;;;;;;;74.70;53.60;;;20.90;80.20;;;;;;4961284;28;98882;-80
2023/06/21 02:11:04;;;;;;;76.40;53.47;;;20.90;80.10;;;;;;4958423;28;97832;-80
2023/06/21 02:13:30;;;;;;;75.00;53.40;;;20.80;82.40;;;;;;4964889;28;95578;-80
2023/06/21 02:15:56;;;;;;;76.40;53.63;;;20.80;80.60;;;;;;4963881;28;95128;-80
2023/06/21 02:18:22;;;;;;;75.15;53.30;;;20.80;80.20;;;;;;4961814;28;97597;-80
2023/06/21 02:20:48;;;;;;;75.95;53.38;;;20.80;80.90;;;;;;4963285;28;94664;-80
2023/06/21 02:23:14;;;;;;;75.07;53.72;;;20.80;80.90;;;;;;4959188;28;94713;-79
2023/06/21 02:25:39;;;;;;;75.25;53.65;;;20.70;81.40;;;;;;4971393;28;94704;-81
2023/06/21 02:28:05;;;;;;;74.88;53.22;;;20.70;82.00;;;;;;4962532;28;96743;-79
2023/06/21 02:30:32;;;;;;;75.75;53.47;;;20.70;82.40;;;;;;4964014;28;97431;-79
2023/06/21 02:32:58;;;;;;;74.65;53.20;;;20.60;80.30;;;;;;4959940;28;95077;-82
2023/06/21 02:35:23;;;;;;;75.68;53.78;;;20.70;81.60;;;;;;4957556;28;96088;-79
2023/06/21 02:37:49;;;;;;;74.53;53.20;;;20.70;82.90;;;;;;4960046;28;98852;-79
2023/06/21 02:40:15;;;;;;;75.03;53.35;;;20.60;81.60;;;;;;4963929;28;95344;-81
2023/06/21 02:42:41;;;;;;;74.35;53.20;;;20.60;81.50;;;;;;4961148;28;94891;-80
2023/06/21 02:45:09;;;;;;;74.80;53.55;;;20.60;81.20;;;;;;4960286;28;95479;-81
2023/06/21 02:47:35;;;;;;;75.60;53.42;;;20.60;83.00;;;;;;4962852;28;98769;-81
2023/06/21 02:50:01;;;;;;;75.00;53.45;;;20.60;80.90;;;;;;4963631;28;98186;-80
2023/06/21 02:52:26;;;;;;;74.53;53.30;;;20.60;81.70;;;;;;4960124;28;100863;-79
2023/06/21 02:54:52;;;;;;;76.90;53.50;;;20.50;81.80;;;;;;4963378;28;93949;-79
2023/06/21 02:57:19;;;;;;;75.00;53.53;;;20.50;81.50;;;;;;4965929;28;98014;-79
2023/06/21 02:59:44;;;;;;;74.20;53.17;;;20.50;81.90;;;;;;4968629;28;94642;-79
2023/06/21 03:02:10;;;;;;;74.13;52.78;;;20.50;82.50;;;;;;4960860;28;97053;-79
2023/06/21 03:04:36;;;;;;;75.25;53.42;;;20.40;83.20;;;;;;4964687;28;94805;-79
2023/06/21 03:07:01;;;;;;;74.10;53.20;;;20.40;82.10;;;;;;4959641;28;98365;-81
2023/06/21 03:09:28;;;;;;;75.00;53.75;;;20.40;82.30;;;;;;4961511;28;98164;-79
2023/06/21 03:11:54;;;;;;;74.93;53.55;;;20.40;81.90;;;;;;4960835;28;94592;-82
2023/06/21 03:14:19;;;;;;;74.32;53.20;;;20.40;82.90;;;;;;4971849;28;94877;-79
2023/06/21 03:16:45;;;;;;;74.28;53.38;;;20.40;82.20;;;;;;4967993;28;97431;-79
2023/06/21 03:19:11;;;;;;;74.57;53.50;;;20.30;81.80;;;;;;4962885;28;97212;-79
2023/06/21 03:21:37;;;;;;;73.75;53.08;;;20.30;82.10;;;;;;4961860;28;94709;-79
2023/06/21 03:24:03;;;;;;;74.85;53.25;;;20.30;81.30;;;;;;4965593;28;94592;-79
2023/06/21 03:26:29;;;;;;;75.60;53.25;;;20.30;81.60;;;;;;4961331;28;99399;-79
2023/06/21 03:28:57;;;;;;;74.25;53.35;;;20.30;81.60;;;;;;4965613;28;99028;-79
2023/06/21 03:31:23;;;;;;;75.05;53.30;;;20.20;81.70;;;;;;4958065;28;94462;-80
2023/06/21 03:33:48;;;;;;;74.78;53.45;;;20.20;81.50;;;;;;4961477;28;95147;-79
2023/06/21 03:36:14;;;;;;;76.20;53.58;;;20.20;82.60;;;;;;4963476;28;98011;-79
2023/06/21 03:38:40;;;;;;;74.35;53.33;;;20.20;82.50;;;;;;4961939;28;97949;-80
2023/06/21 03:41:06;;;;;;;74.53;53.35;;;20.20;82.10;;;;;;4965479;28;95017;-79
2023/06/21 03:43:31;;;;;;;73.95;53.20;;;20.20;81.20;;;;;;4963138;28;94051;-80
2023/06/21 03:45:58;;;;;;;76.22;53.28;;;20.20;81.10;;;;;;4958117;28;96679;-79
2023/06/21 03:48:24;;;;;;;74.70;53.40;;;20.20;83.30;;;;;;4962748;28;97934;-79
2023/06/21 03:50:50;;;;;;;74.35;53.47;;;20.10;82.50;;;;;;4965516;28;97286;-80
2023/06/21 03:53:15;;;;;;;74.40;53.55;;;20.20;81.20;;;;;;4955761;28;94747;-79
2023/06/21 03:55:43;;;;;;;74.22;53.15;;;20.10;82.70;;;;;;4962363;28;95120;-82
2023/06/21 03:58:09;;;;;;;74.13;53.22;;;20.10;81.90;;;;;;4964493;28;97635;-80
2023/06/21 04:00:35;;;;;;;73.90;53.20;;;20.10;82.20;;;;;;4960848;28;94641;-79
2023/06/21 04:03:01;;;;;;;74.43;53.20;;;20.10;81.70;;;;;;4961619;28;95359;-79
2023/06/21 04:05:26;;;;;;;74.20;53.30;;;20.10;83.20;;;;;;4966320;28;98100;-80
2023/06/21 04:07:52;;;;;;;74.95;53.47;;;20.10;81.50;;;;;;4960515;28;97918;-82
2023/06/21 04:10:18;;;;;;;74.88;53.53;;;20.10;80.90;;;;;;4973331;28;95155;-79
2023/06/21 04:12:43;;;;;;;75.45;52.90;;;20.00;82.20;;;;;;4967806;28;95037;-78
2023/06/21 04:15:10;;;;;;;75.38;52.95;;;20.00;81.20;;;;;;4962660;28;99601;-79
2023/06/21 04:17:36;;;;;;;75.05;53.28;;;20.10;81.40;;;;;;4968391;28;99434;-79
2023/06/21 04:20:07;;;;;;;76.80;53.83;;;20.00;81.40;;;;;;4966665;28;94847;-79
2023/06/21 04:22:32;;;;;;;;;;;20.00;81.40;;;;;;4967325;28;94818;-79
2023/06/21 04:24:58;;;;;;;74.57;52.92;;;20.00;80.30;;;;;;4974898;28;97400;-80
2023/06/21 04:27:23;;;;;;;73.97;53.33;;;20.10;81.20;;;;;;4965008;28;97642;-80
2023/06/21 04:29:49;;;;;;;74.22;53.38;;;20.10;81.30;;;;;;4965618;28;94308;-79
2023/06/21 04:32:15;;;;;;;76.00;53.70;;;20.10;80.30;;;;;;4964379;28;94409;-80
2023/06/21 04:34:43;;;;;;;75.18;53.53;;;20.10;81.70;;;;;;4964146;28;98121;-80
2023/06/21 04:37:09;;;;;;;75.53;53.63;;;20.20;79.90;;;;;;4948656;28;97161;-79
2023/06/21 04:39:35;;;;;;;75.82;53.28;;;20.20;80.70;;;;;;4960817;28;96329;-80
2023/06/21 04:42:02;;;;;;;74.40;53.63;;;20.20;80.50;;;;;;4984332;28;94634;-79
2023/06/21 04:44:28;;;;;;;75.40;53.70;;;20.30;80.10;;;;;;4958905;28;98308;-81
2023/06/21 04:46:54;;;;;;;74.78;53.28;;;20.30;80.30;;;;;;4963152;28;97178;-80
2023/06/21 04:49:20;;;;;;;74.70;53.35;;;20.40;80.20;;;;;;4960582;28;94822;-81
2023/06/21 04:51:46;;;;;;;75.78;53.28;;;20.40;80.70;;;;;;4964557;28;95503;-82
2023/06/21 04:54:11;;;;;;;75.75;53.75;;;20.50;85.70;;;;;;4964496;28;95333;-82
2023/06/21 04:56:37;;;;;;;76.03;54.17;;;20.60;86.00;;;;;;4969311;28;97822;-82
2023/06/21 04:59:03;;;;;;;76.82;54.58;;;20.60;86.60;;;;;;4965848;28;94802;-82
2023/06/21 05:01:32;;;;;;;83.10;54.97;;;20.70;86.10;;;;;;4965185;28;95594;-83
2023/06/21 05:03:58;;;;;;;78.88;54.72;;;20.70;86.40;;;;;;4960169;28;98125;-82
2023/06/21 05:06:25;;;;;;;78.35;54.90;;;20.70;83.90;;;;;;4962568;28;98589;-82
2023/06/21 05:08:51;;;;;;;78.07;54.78;;;20.70;85.60;;;;;;4960394;28;94414;-83
2023/06/21 05:11:18;;;;;;;80.93;54.83;;;20.70;86.00;;;;;;4964334;28;94935;-82
2023/06/21 05:13:44;;;;;;;80.75;55.33;;;20.70;86.10;;;;;;4962548;28;99299;-83
2023/06/21 05:16:10;;;;;;;77.40;54.58;;;20.70;86.40;;;;;;4965931;28;98256;-81
2023/06/21 05:18:35;;;;;;;78.13;54.90;;;20.70;86.40;;;;;;4965600;28;94699;-83
2023/06/21 05:21:02;;;;;;;78.15;54.72;;;20.70;86.40;;;;;;4965880;28;93913;-82
2023/06/21 05:23:27;;;;;;;80.38;55.08;;;20.70;85.60;;;;;;4985683;28;99654;-82
2023/06/21 05:25:53;;;;;;;79.20;54.78;;;20.80;86.50;;;;;;4962501;28;95445;-83
2023/06/21 05:28:19;;;;;;;79.57;55.35;;;20.80;85.60;;;;;;4961983;28;95664;-82
2023/06/21 05:30:44;;;;;;;82.47;55.25;;;20.80;86.20;;;;;;4954415;28;94974;-82
2023/06/21 05:33:10;;;;;;;78.75;55.00;;;20.80;86.10;;;;;;4958412;28;99348;-81
2023/06/21 05:35:36;;;;;;;78.43;54.70;;;20.80;83.20;;;;;;4962896;28;96477;-81
2023/06/21 05:38:01;;;;;;;77.38;54.22;;;20.70;81.60;;;;;;4961322;28;95000;-81
2023/06/21 05:40:27;;;;;;;79.22;54.72;;;20.70;78.70;;;;;;4971457;28;94475;-81
2023/06/21 05:42:52;;;;;;;77.43;53.95;;;20.70;80.00;;;;;;4965664;28;98309;-81
2023/06/21 05:45:20;;;;;;;79.18;54.25;;;20.70;78.10;;;;;;4965376;28;99044;-81
2023/06/21 05:47:45;;;;;;;78.32;54.08;;;20.70;78.10;;;;;;4963521;28;94815;-81
2023/06/21 05:50:11;;;;;;;75.57;54.20;;;20.70;80.00;;;;;;4969583;28;95115;-82
2023/06/21 05:52:37;;;;;;;78.90;54.40;;;20.70;78.40;;;;;;4956572;28;99433;-82
2023/06/21 05:55:03;;;;;;;77.03;54.47;;;20.70;78.70;;;;;;4962201;28;98630;-81
2023/06/21 05:57:28;;;;;;;80.88;54.70;;;20.70;82.90;;;;;;4963799;28;94905;-81
2023/06/21 05:59:55;;;;;;;78.28;54.47;;;20.80;79.00;;;;;;4966729;28;96314;-81
2023/06/21 06:02:21;;;;;;;77.07;54.30;;;20.80;79.30;;;;;;4966928;28;98165;-82
2023/06/21 06:04:48;;;;;;;78.68;54.83;;;20.80;78.40;;;;;;4967163;28;95901;-81
2023/06/21 06:07:13;;;;;;;77.93;54.65;;;20.80;78.70;;;;;;4963223;28;95234;-81
2023/06/21 06:09:39;;;;;;;76.53;54.17;;;20.80;79.70;;;;;;4963592;28;93773;-81
2023/06/21 06:12:05;;;;;;;81.03;54.63;;;20.80;79.30;;;;;;4960206;28;97941;-81
2023/06/21 06:14:31;;;;;;;77.47;54.33;;;20.80;79.20;;;;;;4965741;28;98849;-81
2023/06/21 06:16:57;;;;;;;80.18;54.10;;;20.90;79.20;;;;;;4960319;28;95255;-81
2023/06/21 06:19:22;;;;;;;77.22;54.28;;;20.90;79.30;;;;;;4966223;28;94558;-81
2023/06/21 06:21:48;;;;;;;77.32;54.75;;;20.90;79.40;;;;;;4957222;28;98640;-82
2023/06/21 06:24:14;;;;;;;75.50;53.88;;;20.90;78.20;;;;;;4974967;28;98554;-81
2023/06/21 06:26:39;;;;;;;77.05;54.38;;;21.00;78.70;;;;;;4961765;28;94693;-81
2023/06/21 06:29:05;;;;;;;78.72;54.55;;;21.10;77.80;;;;;;4962541;28;94429;-81
2023/06/21 06:31:31;;;;;;;77.80;54.58;;;21.20;78.10;;;;;;4958503;28;97695;-81
2023/06/21 06:33:57;;;;;;;77.45;54.45;;;21.30;77.40;;;;;;4963903;28;97562;-82
2023/06/21 06:36:22;;;;;;;78.03;54.33;;;21.30;76.20;;;;;;4958527;28;96710;-80
2023/06/21 06:38:49;;;;;;;76.38;54.35;;;21.40;76.50;;;;;;4965155;28;94562;-81
2023/06/21 06:41:15;;;;;;;77.50;54.70;;;21.40;76.10;;;;;;4961706;28;99285;-81
2023/06/21 06:43:40;;;;;;;79.03;54.55;;;21.50;76.10;;;;;;4958353;28;97500;-82
2023/06/21 06:46:06;;;;;;;80.38;54.45;;;21.60;76.60;;;;;;4966802;28;94515;-80
2023/06/21 06:48:32;;;;;;;78.57;54.33;;;21.70;75.40;;;;;;4965479;28;94774;-82
2023/06/21 06:50:58;;;;;;;78.70;54.63;;;21.70;74.90;;;;;;4967199;28;98649;-81
2023/06/21 06:53:24;;;;;;;78.85;54.47;;;21.80;75.60;;;;;;4963311;28;96916;-81
2023/06/21 06:55:54;;;;;;;80.72;54.90;;;21.80;74.70;;;;;;4963209;28;94658;-83
2023/06/21 06:58:21;;;;;;;78.97;54.30;;;21.80;74.90;;;;;;4958311;28;94650;-81
2023/06/21 07:00:47;;;;;;;79.45;54.72;;;21.80;75.50;;;;;;4967851;28;98158;-82
2023/06/21 07:03:13;;;;;;;77.05;54.15;;;21.80;76.70;;;;;;4970707;28;98041;-80
2023/06/21 07:05:46;;;;;;;76.57;54.22;;;21.80;75.90;;;;;;4966142;28;96540;-82
2023/06/21 07:08:12;;;;;;;76.53;54.55;;;21.70;76.30;;;;;;4964188;28;95470;-80
2023/06/21 07:10:39;;;;;;;77.90;54.35;;;21.70;76.30;;;;;;4968405;28;97792;-81
2023/06/21 07:13:06;;;;;;;77.88;54.65;;;21.70;76.40;;;;;;4960519;28;97516;-80
2023/06/21 07:15:32;;;;;;;78.03;54.53;;;21.70;79.20;;;;;;4965914;28;94465;-80
2023/06/21 07:17:57;;;;;;;77.75;54.33;;;21.70;78.80;;;;;;4960003;28;94711;-81
2023/06/21 07:20:23;;;;;;;76.45;54.20;;;21.70;76.20;;;;;;4968428;28;97932;-80
2023/06/21 07:22:48;;;;;;;77.50;54.22;;;21.80;77.30;;;;;;4964730;28;97469;-81
2023/06/21 07:25:15;;;;;;;77.40;54.40;;;21.80;76.50;;;;;;4967268;28;94479;-80
2023/06/21 07:27:41;;;;;;;77.65;54.45;;;21.80;77.20;;;;;;4960752;28;94543;-81
2023/06/21 07:30:07;;;;;;;80.50;53.95;;;21.90;78.00;;;;;;4963922;28;97820;-81
2023/06/21 07:32:33;;;;;;;79.10;54.10;;;21.90;76.90;;;;;;4966989;28;99898;-80
2023/06/21 07:34:59;;;;;;;77.38;54.42;;;21.90;75.70;;;;;;4965217;28;95080;-80
2023/06/21 07:37:27;;;;;;;77.00;54.03;;;21.80;77.10;;;;;;4961852;28;94795;-80
2023/06/21 07:39:53;;;;;;;76.18;53.60;;;21.90;76.20;;;;;;4957702;28;95413;-80
2023/06/21 07:42:18;;;;;;;76.28;54.28;;;21.90;75.70;;;;;;4961888;28;97787;-81
2023/06/21 07:44:45;;;;;;;77.38;54.28;;;21.90;75.60;;;;;;4960581;28;94653;-80
2023/06/21 07:47:10;;;;;;;78.15;54.15;;;22.00;77.50;;;;;;4963487;28;93744;-81
2023/06/21 07:49:36;;;;;;;76.70;54.00;;;22.00;76.20;;;;;;4964033;28;98762;-80
2023/06/21 07:52:02;;;;;;;78.32;53.85;;;22.10;76.90;;;;;;4959772;28;98167;-82
2023/06/21 07:54:28;;;;;;;78.70;54.53;;;22.10;75.60;;;;;;4961118;28;95590;-80
2023/06/21 07:56:53;;;;;;;75.95;53.92;;;22.10;75.60;;;;;;4964627;28;95206;-81
2023/06/21 07:59:19;;;;;;;77.38;54.22;;;22.10;75.90;;;;;;4963570;28;98530;-80
2023/06/21 08:01:44;;;;;;;78.03;54.20;;;22.10;76.40;;;;;;4959342;28;97500;-81
2023/06/21 08:04:10;;;;;;;76.78;54.20;;;22.10;77.60;;;;;;4962884;28;94594;-80
2023/06/21 08:06:36;;;;;;;77.53;54.33;;;22.10;75.80;;;;;;4966075;28;94616;-80
2023/06/21 08:09:01;;;;;;;76.57;54.00;;;22.20;76.20;;;;;;4963065;28;97572;-80
2023/06/21 08:11:27;;;;;;;77.50;54.28;;;22.20;75.40;;;;;;4963751;28;95085;-81
2023/06/21 08:13:53;;;;;;;79.40;54.50;;;22.30;76.50;;;;;;4962907;28;96095;-81
2023/06/21 08:16:18;;;;;;;79.47;54.67;;;22.40;77.80;;;;;;4963627;28;95298;-80
2023/06/21 08:18:44;;;;;;;77.97;54.17;;;22.50;76.30;;;;;;4961378;28;100005;-81
2023/06/21 08:21:09;;;;;;;77.50;54.45;;;22.50;75.40;;;;;;4956659;28;95620;-80
2023/06/21 08:23:35;;;;;;;76.97;54.30;;;22.50;76.30;;;;;;4968404;28;95361;-80
2023/06/21 08:26:01;;;;;;;77.53;54.42;;;22.70;77.10;;;;;;4962415;28;94340;-80
2023/06/21 08:28:27;;;;;;;79.05;54.35;;;22.70;75.10;;;;;;4958809;28;94996;-80
2023/06/21 08:30:53;;;;;;;78.57;54.72;;;22.80;74.50;;;;;;4964739;28;95731;-81
2023/06/21 08:33:18;;;;;;;78.15;54.53;;;22.80;74.40;;;;;;4965670;28;94900;-81
2023/06/21 08:35:44;;;;;;;78.95;54.47;;;22.80;73.60;;;;;;4962900;28;93766;-80
2023/06/21 08:38:09;;;;;;;80.25;54.80;;;22.90;73.80;;;;;;4957459;28;94928;-82
2023/06/21 08:40:37;;;;;;;77.72;54.50;;;22.90;74.30;;;;;;4965232;28;95064;-82
2023/06/21 08:43:03;;;;;;;79.65;54.63;;;22.90;73.60;;;;;;4956705;28;96161;-81
2023/06/21 08:45:29;;;;;;;78.00;54.35;;;22.90;73.70;;;;;;4957094;28;95034;-82
2023/06/21 08:48:01;;;;;;;78.70;54.10;;;22.90;74.00;;;;;;4959197;28;98332;-81
2023/06/21 08:50:28;;;;;;;81.32;54.47;;;22.90;73.60;;;;;;4970314;28;95099;-83
2023/06/21 08:52:54;;;;;;;78.20;53.90;;;23.00;73.50;;;;;;4965937;28;94908;-82
2023/06/21 08:55:23;;;;;;;78.57;54.33;;;23.10;73.40;;;;;;4970898;28;95182;-83
2023/06/21 08:57:54;;;;;;;79.18;54.35;;;23.10;73.90;;;;;;4965733;28;98351;-81
2023/06/21 09:00:22;;;;;;;77.93;54.28;;;23.10;73.60;;;;;;4975063;28;96773;-81
2023/06/21 09:03:06;;;;;;;78.25;54.08;;;23.10;73.60;;;;;;4972879;28;95251;-82
2023/06/21 09:05:44;;;;;;;78.22;54.25;;;23.10;74.10;;;;;;4963257;28;94931;-82
2023/06/21 09:08:10;;;;;;;78.00;54.08;;;23.10;73.80;;;;;;4965106;28;95932;-82
2023/06/21 09:10:38;;;;;;;79.25;54.60;;;23.10;74.50;;;;;;4957662;28;95892;-82
2023/06/21 09:13:06;;;;;;;77.95;54.22;;;23.10;76.40;;;;;;4962443;28;96423;-81
2023/06/21 09:15:32;;;;;;;78.43;54.28;;;23.10;74.30;;;;;;4963593;28;94546;-81
2023/06/21 09:17:59;;;;;;;79.03;53.80;;;23.00;74.20;;;;;;4966545;28;97107;-81
2023/06/21 09:20:29;;;;;;;80.90;54.70;;;23.00;74.70;;;;;;4963460;28;99052;-81
2023/06/21 09:22:59;;;;;;;80.97;54.55;;;23.00;75.10;;;;;;4962568;28;95067;-81
2023/06/21 09:25:26;;;;;;;78.85;54.28;;;23.10;75.50;;;;;;4968159;28;94722;-82
2023/06/21 09:27:53;;;;;;;79.40;55.08;;;23.10;74.20;;;;;;4967117;28;97421;-83
2023/06/21 09:30:19;;;;;;;77.60;54.08;;;23.10;74.70;;;;;;4962825;28;97846;-82
2023/06/21 09:32:46;;;;;;;84.65;56.10;;;23.10;73.80;;;;;;4965855;28;95414;-82
2023/06/21 09:35:13;;;;;;;82.10;55.63;;;23.10;75.50;;;;;;4965206;28;95007;-82
2023/06/21 09:37:39;;;;;;;78.70;54.55;;;23.10;74.70;;;;;;4968215;28;96907;-81
2023/06/21 09:40:06;;;;;;;83.88;56.10;;;23.10;74.00;;;;;;4966063;28;97099;-81
2023/06/21 09:42:37;;;;;;;84.43;55.97;;;23.10;75.10;;;;;;4964563;28;95502;-81
2023/06/21 09:45:07;;;;;;;83.35;56.13;;;23.20;75.40;;;;;;4970424;28;94294;-81
2023/06/21 09:47:32;;;;;;;78.45;54.28;;;23.20;74.60;;;;;;4968920;28;97969;-82
2023/06/21 09:49:58;;;;;;;80.53;54.83;;;23.20;73.90;;;;;;4964716;28;98968;-82
2023/06/21 09:52:24;;;;;;;81.18;55.10;;;23.20;74.00;;;;;;4965647;28;94421;-81
2023/06/21 09:54:50;;;;;;;77.80;54.25;;;23.20;74.50;;;;;;4964083;28;95377;-82
2023/06/21 09:57:16;;;;;;;78.95;54.67;;;23.30;73.80;;;;;;4962066;28;95937;-82
2023/06/21 09:59:47;;;;;;;81.90;55.38;;;23.20;74.40;;;;;;4962748;28;98445;-81
2023/06/21 10:02:12;;;;;;;85.07;55.45;;;23.30;74.70;;;;;;4963480;28;95410;-81
2023/06/21 10:04:42;;;;;;;81.40;55.00;;;23.30;74.50;;;;;;4971865;28;94471;-82
2023/06/21 10:07:08;;;;;;;81.35;55.05;;;23.30;73.80;;;;;;4970670;28;99269;-82
2023/06/21 10:09:38;;;;;;;79.57;54.72;;;23.40;73.80;;;;;;4962252;28;95543;-81
2023/06/21 10:12:11;;;;;;;78.13;54.10;;;23.40;73.80;;;;;;4965609;28;95338;-82
2023/06/21 10:14:39;;;;;;;82.30;55.38;;;23.40;73.30;;;;;;4965849;28;94417;-82
2023/06/21 10:17:05;;;;;;;82.32;55.67;;;23.40;74.00;;;;;;4967301;28;94728;-82
2023/06/21 10:19:32;;;;;;;78.40;53.95;;;23.50;74.40;;;;;;4965703;28;94884;-82
2023/06/21 10:22:20;;;;;;;78.40;54.47;;;23.50;73.50;;;;;;4965228;28;95536;-81
2023/06/21 10:24:51;;;;;;;81.07;55.45;;;23.50;73.60;;;;;;4967460;28;94715;-81
2023/06/21 10:27:18;;;;;;;78.13;53.97;;;23.50;73.60;;;;;;4961733;28;94614;-82
2023/06/21 10:29:45;;;;;;;79.03;54.38;;;23.50;73.30;;;;;;4964165;28;98048;-82
2023/06/21 10:32:12;;;;;;;77.55;54.17;;;23.50;73.20;;;;;;4967883;28;94778;-83
2023/06/21 10:35:03;;;;;;;77.07;54.20;;;23.60;73.20;;;;;;4966166;28;94631;-82
2023/06/21 10:37:35;;;;;;;80.40;54.28;;;23.60;73.90;;;;;;4971019;28;98881;-82
2023/06/21 10:40:05;;;;;;;78.45;54.20;;;23.60;74.30;;;;;;4969606;28;98698;-82
2023/06/21 10:42:32;;;;;;;79.75;54.83;;;23.60;74.20;;;;;;4967786;28;95136;-82
2023/06/21 10:44:59;;;;;;;79.03;54.65;;;23.60;73.40;;;;;;4965006;28;94673;-82
2023/06/21 10:47:26;;;;;;;77.80;54.03;;;23.60;73.30;;;;;;4968239;28;99613;-82
2023/06/21 10:49:57;;;;;;;78.18;54.30;;;23.70;73.70;;;;;;4963386;28;96252;-82
2023/06/21 10:52:25;;;;;;;80.32;54.83;;;23.70;73.70;;;;;;4966792;28;94646;-82
2023/06/21 10:54:52;;;;;;;78.63;54.70;;;23.70;73.70;;;;;;4960715;28;95051;-82
2023/06/21 10:57:19;;;;;;;79.90;54.95;;;23.70;73.40;;;;;;4966813;28;97941;-82
2023/06/21 10:59:45;;;;;;;77.85;54.20;;;23.70;73.10;;;;;;4974451;28;95859;-82
2023/06/21 11:02:12;;;;;;;78.50;54.42;;;23.70;73.30;;;;;;4969206;28;96564;-82
2023/06/21 11:05:15;;;;;;;79.28;54.65;;;23.80;73.20;;;;;;4965255;28;93873;-83
2023/06/21 11:08:06;;;;;;;78.50;54.40;;;23.80;73.30;;;;;;4951868;28;98149;-81
2023/06/21 11:10:47;;;;;;;79.20;55.20;;;23.90;72.50;;;;;;4954120;28;97985;-82
2023/06/21 11:13:13;;;;;;;77.75;54.15;;;23.90;71.90;;;;;;4965202;28;95706;-82
2023/06/21 11:15:40;;;;;;;77.65;54.05;;;23.90;72.40;;;;;;4965919;28;94729;-82
2023/06/21 11:18:09;;;;;;;78.53;54.33;;;24.00;71.80;;;;;;4967104;28;99801;-82
2023/06/21 11:20:47;;;;;;;78.97;54.65;;;23.90;71.60;;;;;;4964534;28;98057;-82
2023/06/21 11:23:22;;;;;;;78.22;54.47;;;24.00;72.20;;;;;;4969846;28;94593;-82
2023/06/21 11:26:15;;;;;;;79.30;54.03;;;24.00;72.40;;;;;;4962698;28;94799;-82
2023/06/21 11:28:46;;;;;;;79.80;54.78;;;24.00;72.10;;;;;;4966828;28;95296;-82
2023/06/21 11:31:14;;;;;;;81.03;54.97;;;24.10;71.20;;;;;;4970319;28;94971;-82
2023/06/21 11:33:53;;;;;;;77.32;53.58;;;24.00;71.30;;;;;;4969851;28;94566;-83
2023/06/21 11:36:26;;;;;;;79.78;54.97;;;24.10;71.80;;;;;;4961094;28;94573;-81
2023/06/21 11:39:04;;;;;;;78.18;54.20;;;24.10;71.50;;;;;;4966158;28;96352;-82
2023/06/21 11:41:40;;;;;;;79.15;54.83;;;24.10;72.20;;;;;;4959682;28;99757;-83
2023/06/21 11:44:20;;;;;;;77.43;53.85;;;24.20;71.50;;;;;;4963250;28;95104;-82
2023/06/21 11:46:46;;;;;;;79.35;54.85;;;24.20;71.20;;;;;;4964517;28;94594;-83
2023/06/21 11:49:12;;;;;;;77.63;54.08;;;24.20;71.30;;;;;;4965684;28;97839;-82
2023/06/21 11:52:04;;;;;;;78.18;54.08;;;24.30;72.30;;;;;;4961843;28;94925;-82
2023/06/21 11:54:39;;;;;;;82.40;55.25;;;24.40;71.70;;;;;;4962121;28;95250;-81
2023/06/21 11:57:08;;;;;;;80.70;54.92;;;24.40;70.50;;;;;;4964226;28;93790;-81
2023/06/21 11:59:35;;;;;;;80.07;54.83;;;24.50;70.40;;;;;;4981374;28;98421;-82
2023/06/21 12:02:12;;;;;;;79.38;54.78;;;24.60;70.20;;;;;;4962214;28;98212;-81
2023/06/21 12:04:40;;;;;;;78.80;54.63;;;24.60;70.20;;;;;;4960986;28;95645;-80
2023/06/21 12:07:05;;;;;;;77.97;54.17;;;24.70;69.90;;;;;;4961596;28;95164;-81
2023/06/21 12:09:31;;;;;;;78.97;54.33;;;24.70;70.50;;;;;;4965440;28;95220;-81
2023/06/21 12:11:57;;;;;;;78.15;54.13;;;24.80;69.90;;;;;;4960234;28;98145;-80
2023/06/21 12:14:23;;;;;;;78.57;54.33;;;24.80;70.90;;;;;;4958258;28;96007;-81
2023/06/21 12:16:52;;;;;;;78.13;54.05;;;24.80;70.50;;;;;;4957043;28;94676;-81
2023/06/21 12:19:21;;;;;;;78.47;54.50;;;24.80;70.40;;;;;;4955342;28;94908;-81
2023/06/21 12:21:48;;;;;;;79.00;54.75;;;24.80;70.30;;;;;;4954994;28;94259;-82
2023/06/21 12:24:14;;;;;;;80.00;54.42;;;24.80;69.40;;;;;;4961587;28;94820;-81
2023/06/21 12:26:49;;;;;;;79.40;54.50;;;24.90;69.50;;;;;;4961424;28;94620;-82
2023/06/21 12:29:15;;;;;;;78.85;54.42;;;25.00;69.60;;;;;;4968263;28;98078;-81
2023/06/21 12:31:45;;;;;;;79.22;54.03;;;25.10;69.60;;;;;;4967947;28;98733;-81